Terminal Aerodrome Forecast
Issued by NWS La Crosse, WI

Home | Current Version | Previous Version | Text Only | Print | Product List | Glossary On
Versions: 1 2 3 4 5 6 7 8 9 10 11 12 13 14 15 16 17 18 19 20 21 22 23 24 25 26 27 28 29 30 31 32 33 34 35 36 37 38 39
000
FTUS43 KARX 311449 AAA
TAFRST
TAF AMD
KRST 311449Z 3115/0112 VRB04KT 6SM BR BKN008
     FM311900 02008KT P6SM BKN013
     FM010400 04012KT 4SM -SN OVC008
     FM010600 05014G21KT 1/2SM SN BKN005=

USA.gov is the U.S. government's official web portal to all federal, state and local government web resources and services.